Time;durP1;ratioP1;P1;durP2;ratioP2;P2;SDS_P1;SDS_P2;PMS_P1;PMS_P2;Temp;Humidity;BMP_temperature;BMP_pressure;BME280_temperature;BME280_humidity;BME280_pressure;Samples;Min_cycle;Max_cycle;Signal;HPM_P1;HPM_P2
2023/05/01 00:01:29;;;;;;;3.00;2.70;;;;;;;11.26;55.96;98977.72;5070656;28;41712;-79
2023/05/01 00:03:56;;;;;;;3.80;2.77;;;;;;;11.35;55.57;98993.09;5071181;28;42761;-79
2023/05/01 00:06:24;;;;;;;3.07;2.53;;;;;;;11.16;55.30;98962.41;5071244;28;40997;-80
2023/05/01 00:08:52;;;;;;;3.67;2.80;;;;;;;11.29;56.12;98983.69;5054760;28;39920;-81
2023/05/01 00:11:20;;;;;;;4.43;3.00;;;;;;;11.25;56.10;98982.19;5071258;28;39587;-82
2023/05/01 00:13:49;;;;;;;4.20;3.20;;;;;;;11.23;56.43;98983.25;5071429;28;43697;-82
2023/05/01 00:16:16;;;;;;;6.07;2.77;;;;;;;11.20;56.62;98978.13;5054074;28;40930;-83
2023/05/01 00:18:44;;;;;;;3.37;2.73;;;;;;;11.15;57.31;98966.00;5071345;28;40087;-79
2023/05/01 00:21:12;;;;;;;3.47;3.00;;;;;;;11.11;57.92;98959.22;5072013;28;41673;-82
2023/05/01 00:23:39;;;;;;;5.07;3.20;;;;;;;11.11;57.56;98964.53;5070845;28;43133;-81
2023/05/01 00:26:07;;;;;;;3.33;3.03;;;;;;;11.08;57.45;98954.09;5070730;28;40963;-79
2023/05/01 00:28:36;;;;;;;5.80;2.97;;;;;;;11.09;57.38;98955.81;5070954;28;39276;-81
2023/05/01 00:31:05;;;;;;;4.33;3.60;;;;;;;11.07;57.79;98952.41;5054175;28;41970;-81
2023/05/01 00:33:33;;;;;;;4.13;3.73;;;;;;;11.06;58.18;98956.00;5070612;28;41654;-79
2023/05/01 00:36:00;;;;;;;4.37;3.37;;;;;;;11.04;58.37;98955.25;5070703;28;43142;-81
2023/05/01 00:38:28;;;;;;;5.77;3.57;;;;;;;11.04;58.09;98955.25;5054124;28;39265;-80
2023/05/01 00:40:56;;;;;;;5.60;3.77;;;;;;;11.05;57.89;98953.44;5053023;28;40565;-80
2023/05/01 00:43:23;;;;;;;4.87;3.97;;;;;;;11.01;58.33;98941.31;5071070;28;43804;-79
2023/05/01 00:45:51;;;;;;;5.23;3.97;;;;;;;11.01;58.54;98944.81;5053782;28;41490;-78
2023/05/01 00:48:20;;;;;;;4.27;3.27;;;;;;;11.00;58.11;98940.47;5054034;28;38779;-82
2023/05/01 00:50:49;;;;;;;5.93;3.93;;;;;;;10.99;57.93;98946.75;5053812;28;41624;-80
2023/05/01 00:53:17;;;;;;;7.30;4.00;;;;;;;10.92;58.43;98926.00;5070324;28;42686;-80
2023/05/01 00:55:46;;;;;;;5.40;4.23;;;;;;;10.82;58.49;98909.84;5053739;28;41063;-80
2023/05/01 00:58:14;;;;;;;5.87;4.30;;;;;;;10.96;58.88;98932.84;5054011;28;38965;-80
2023/05/01 01:00:42;;;;;;;4.47;4.00;;;;;;;10.95;58.47;98925.81;5053145;28;40468;-80
2023/05/01 01:03:10;;;;;;;5.47;4.67;;;;;;;10.95;58.96;98929.31;5053681;28;41530;-80
2023/05/01 01:05:44;;;;;;;7.13;4.60;;;;;;;10.93;58.93;98928.56;5053466;28;41025;-81
2023/05/01 01:08:20;;;;;;;7.80;4.47;;;;;;;10.93;58.79;98925.91;5067535;28;40166;-79
2023/05/01 01:10:54;;;;;;;5.87;4.53;;;;;;;10.85;59.11;98909.66;5053695;28;41453;-82
2023/05/01 01:13:31;;;;;;;4.90;3.73;;;;;;;10.89;59.01;98921.75;5053941;28;42675;-80
2023/05/01 01:16:09;;;;;;;4.67;4.03;;;;;;;10.86;59.53;98911.38;5068110;28;42325;-79
2023/05/01 01:18:42;;;;;;;5.60;4.70;;;;;;;10.84;59.51;98907.97;5067214;28;40240;-80
2023/05/01 01:21:22;;;;;;;5.57;4.60;;;;;;;10.84;59.53;98905.31;5070317;28;40988;-81
2023/05/01 01:24:26;;;;;;;5.63;4.37;;;;;;;10.82;59.13;98904.53;5053212;28;42921;-80
2023/05/01 01:27:48;;;;;;;6.50;4.23;;;;;;;10.83;59.13;98902.75;5053487;28;42397;-78
2023/05/01 01:30:35;;;;;;;5.30;4.50;;;;;;;10.79;59.32;98902.94;5070839;28;38554;-79
2023/05/01 01:33:25;;;;;;;7.03;5.03;;;;;;;10.78;59.54;98905.69;5053569;28;40855;-80
2023/05/01 01:35:57;;;;;;;5.80;4.83;;;;;;;10.73;59.96;98899.84;5069535;28;43815;-81
2023/05/01 01:38:33;;;;;;;5.03;4.23;;;;;;;10.74;59.85;98901.53;5067143;28;43113;-80
2023/05/01 01:41:08;;;;;;;6.60;4.60;;;;;;;10.67;59.77;98892.25;5067784;28;40741;-78
2023/05/01 01:43:40;;;;;;;8.00;5.03;;;;;;;10.67;59.42;98892.25;5053248;28;42002;-80
2023/05/01 01:46:12;;;;;;;6.63;4.40;;;;;;;10.66;59.97;98903.78;5053178;28;41957;-80
2023/05/01 01:48:43;;;;;;;5.90;4.57;;;;;;;10.65;59.66;98900.28;5067163;28;42201;-79
2023/05/01 01:51:16;;;;;;;6.33;4.40;;;;;;;10.64;60.06;98889.78;5054591;28;39047;-80
2023/05/01 01:53:48;;;;;;;6.63;4.63;;;;;;;10.62;60.00;98891.72;5057485;28;40708;-82
2023/05/01 01:56:19;;;;;;;8.07;5.17;;;;;;;10.58;59.82;98888.38;5056629;28;43115;-79
2023/05/01 01:58:48;;;;;;;7.93;4.77;;;;;;;10.43;60.05;98866.34;5070440;28;43200;-83
2023/05/01 02:01:18;;;;;;;5.93;4.50;;;;;;;10.54;60.08;98878.06;5073050;28;39983;-82
2023/05/01 02:03:47;;;;;;;5.33;4.60;;;;;;;10.51;60.48;98873.00;5056854;28;42000;-80
2023/05/01 02:06:17;;;;;;;6.17;5.03;;;;;;;10.45;60.47;98863.63;5056269;28;41703;-79
2023/05/01 02:08:48;;;;;;;5.57;4.50;;;;;;;10.44;60.30;98870.69;5056644;28;41138;-81
2023/05/01 02:11:18;;;;;;;6.53;4.70;;;;;;;10.44;60.23;98873.34;5073294;28;41012;-81
2023/05/01 02:13:47;;;;;;;8.67;5.33;;;;;;;10.40;60.94;98865.69;5073408;28;41860;-79
2023/05/01 02:16:16;;;;;;;7.33;5.63;;;;;;;10.38;60.44;98865.81;5056396;28;42033;-78
2023/05/01 02:18:46;;;;;;;7.93;6.07;;;;;;;10.24;60.43;98844.63;5056059;28;41948;-83
2023/05/01 02:21:14;;;;;;;7.57;5.30;;;;;;;10.34;60.86;98861.63;5073013;28;41967;-83
2023/05/01 02:23:44;;;;;;;7.20;5.80;;;;;;;10.31;60.90;98861.81;5072971;28;42494;-81
2023/05/01 02:26:16;;;;;;;7.17;5.47;;;;;;;10.31;61.29;98856.53;5055635;28;43087;-80
2023/05/01 02:28:44;;;;;;;6.77;5.23;;;;;;;10.29;61.47;98863.69;5070942;28;42084;-82
2023/05/01 02:31:12;;;;;;;7.43;5.67;;;;;;;10.17;61.08;98845.03;5055954;28;38869;-83
2023/05/01 02:33:40;;;;;;;7.73;5.60;;;;;;;10.18;61.36;98847.63;5072873;28;41883;-80
2023/05/01 02:36:07;;;;;;;8.77;5.33;;;;;;;10.26;61.00;98863.88;5072762;28;42951;-80
2023/05/01 02:38:35;;;;;;;5.97;4.80;;;;;;;10.25;61.23;98870.16;5073000;28;43180;-79
2023/05/01 02:41:06;;;;;;;6.53;4.97;;;;;;;10.20;61.52;98858.97;5072684;28;39931;-80
2023/05/01 02:43:35;;;;;;;8.43;5.53;;;;;;;10.25;61.09;98862.19;5056063;28;40625;-83
2023/05/01 02:46:05;;;;;;;5.47;4.93;;;;;;;10.24;60.77;98868.44;5055495;28;41924;-80
2023/05/01 02:48:36;;;;;;;8.97;5.23;;;;;;;10.26;60.78;98865.69;5072735;28;41070;-80
2023/05/01 02:51:04;;;;;;;6.20;4.77;;;;;;;10.15;61.14;98850.41;5072283;28;40193;-82
2023/05/01 02:53:32;;;;;;;7.43;4.97;;;;;;;10.23;60.87;98857.94;5072617;28;42115;-79
2023/05/01 02:56:08;;;;;;;7.33;5.40;;;;;;;10.22;60.82;98859.72;5070504;28;42805;-81
2023/05/01 02:58:36;;;;;;;6.10;5.00;;;;;;;10.21;60.91;98855.38;5072331;28;43242;-84
2023/05/01 03:01:04;;;;;;;7.03;4.83;;;;;;;10.19;60.68;98854.63;5071955;28;41852;-82
2023/05/01 03:03:32;;;;;;;6.13;4.60;;;;;;;10.16;60.28;98851.28;5055105;28;40531;-82
2023/05/01 03:06:01;;;;;;;5.60;4.40;;;;;;;10.17;60.08;98859.13;5055173;28;41723;-79
2023/05/01 03:08:31;;;;;;;4.80;4.07;;;;;;;10.14;59.88;98854.00;5055501;28;42167;-83
2023/05/01 03:10:58;;;;;;;5.67;4.77;;;;;;;10.01;59.86;98837.19;5072213;28;40870;-80
2023/05/01 03:13:27;;;;;;;4.40;3.90;;;;;;;10.10;59.60;98849.88;5072369;28;42498;-82
2023/05/01 03:15:55;;;;;;;7.47;4.67;;;;;;;10.06;59.74;98845.69;5071980;28;42669;-82
2023/05/01 03:18:22;;;;;;;7.00;4.93;;;;;;;10.00;60.29;98851.38;5055150;28;42588;-81
2023/05/01 03:20:55;;;;;;;7.17;5.30;;;;;;;10.00;61.28;98851.38;5072912;28;40026;-81
2023/05/01 03:23:24;;;;;;;6.87;5.07;;;;;;;9.97;61.61;98851.53;5055205;28;40762;-80
2023/05/01 03:25:53;;;;;;;6.57;5.17;;;;;;;9.92;61.94;98837.72;5054545;28;41679;-80
2023/05/01 03:28:22;;;;;;;7.97;5.50;;;;;;;9.91;62.22;98836.03;5054749;28;41282;-80
2023/05/01 03:30:54;;;;;;;7.63;5.63;;;;;;;9.87;63.21;98834.53;5054895;28;38546;-82
2023/05/01 03:33:22;;;;;;;7.43;5.70;;;;;;;9.87;62.72;98834.53;5071794;28;41865;-80
2023/05/01 03:35:59;;;;;;;9.23;6.00;;;;;;;9.85;62.92;98831.13;5071373;28;42961;-79
2023/05/01 03:38:27;;;;;;;7.87;5.80;;;;;;;9.81;62.92;98829.59;5055337;28;41490;-81
2023/05/01 03:41:22;;;;;;;8.63;5.93;;;;;;;9.82;62.79;98836.59;5062226;28;39196;-79
2023/05/01 03:44:28;;;;;;;7.90;6.00;;;;;;;9.80;62.92;98843.75;5070834;28;41905;-80
2023/05/01 03:46:58;;;;;;;7.27;5.73;;;;;;;9.80;62.44;98847.25;5070329;28;42751;-81
2023/05/01 03:49:29;;;;;;;8.30;6.27;;;;;;;9.75;62.36;98835.25;5069196;28;43203;-79
2023/05/01 03:51:56;;;;;;;6.60;5.73;;;;;;;9.80;62.21;98849.03;5071548;28;40985;-82
2023/05/01 03:54:24;;;;;;;7.87;5.43;;;;;;;9.80;62.56;98851.69;5071599;28;42423;-81
2023/05/01 03:57:02;;;;;;;8.03;5.33;;;;;;;9.72;62.26;98831.84;5054333;28;44606;-82
2023/05/01 03:59:31;;;;;;;6.80;5.67;;;;;;;9.75;62.21;98843.19;5054315;28;41247;-81
2023/05/01 04:02:01;;;;;;;5.80;5.20;;;;;;;9.81;62.11;98854.25;5070948;28;40757;-80
2023/05/01 04:04:32;;;;;;;5.90;5.27;;;;;;;9.66;62.37;98824.25;5054905;28;40542;-78
2023/05/01 04:07:00;;;;;;;6.93;5.83;;;;;;;9.79;62.47;98836.75;5070961;28;42499;-79
2023/05/01 04:09:29;;;;;;;7.03;5.63;;;;;;;9.82;62.61;98836.59;5054140;28;41219;-82
2023/05/01 04:12:00;;;;;;;7.50;6.13;;;;;;;9.86;62.19;98840.75;5071393;28;40028;-82
2023/05/01 04:14:28;;;;;;;7.77;6.97;;;;;;;9.78;62.93;98819.19;5054006;28;40804;-81
2023/05/01 04:16:56;;;;;;;6.77;6.00;;;;;;;9.89;62.88;98832.66;5054074;28;41694;-80
2023/05/01 04:19:25;;;;;;;10.40;7.10;;;;;;;9.91;62.44;98833.38;5070984;28;43157;-80
2023/05/01 04:21:58;;;;;;;6.47;5.43;;;;;;;9.92;62.50;98833.28;5054091;28;38896;-79
2023/05/01 04:24:26;;;;;;;8.47;6.53;;;;;;;9.91;62.36;98826.28;5054230;28;40376;-81
2023/05/01 04:26:54;;;;;;;8.77;5.93;;;;;;;9.96;62.15;98823.38;5054133;28;41591;-79
2023/05/01 04:29:22;;;;;;;7.83;5.70;;;;;;;9.98;62.58;98834.72;5070814;28;42382;-82
2023/05/01 04:31:50;;;;;;;9.23;6.13;;;;;;;9.73;61.87;98785.97;5071096;28;40111;-81
2023/05/01 04:34:18;;;;;;;7.47;5.90;;;;;;;10.05;61.98;98825.47;5053918;28;40674;-80
2023/05/01 04:36:50;;;;;;;8.43;5.93;;;;;;;10.07;62.09;98827.09;5069855;28;42878;-79
2023/05/01 04:39:18;;;;;;;7.37;5.90;;;;;;;10.16;62.02;98835.38;5053953;28;41279;-82
2023/05/01 04:41:46;;;;;;;9.17;6.60;;;;;;;10.20;61.83;98835.16;5053721;28;40790;-81
2023/05/01 04:44:14;;;;;;;10.40;6.83;;;;;;;10.24;61.53;98839.31;5053938;28;40648;-80
2023/05/01 04:46:42;;;;;;;10.07;6.27;;;;;;;10.31;61.24;98842.44;5053676;28;41650;-81
2023/05/01 04:49:09;;;;;;;8.37;6.37;;;;;;;10.37;60.98;98840.28;5070751;28;42433;-80
2023/05/01 04:51:37;;;;;;;10.67;6.30;;;;;;;10.46;61.05;98843.28;5070449;28;39904;-81
2023/05/01 04:54:07;;;;;;;9.63;7.30;;;;;;;10.49;61.05;98843.09;5070805;28;40715;-79
2023/05/01 04:56:39;;;;;;;10.30;6.33;;;;;;;10.54;60.93;98843.66;5053487;28;42821;-80
2023/05/01 04:59:08;;;;;;;7.03;6.07;;;;;;;10.54;60.98;98835.69;5053855;28;41113;-82
2023/05/01 05:01:38;;;;;;;10.90;7.37;;;;;;;10.53;60.58;98841.94;5068805;28;40843;-82
2023/05/01 05:04:06;;;;;;;9.40;6.57;;;;;;;10.54;60.80;98841.00;5053501;28;40477;-82
2023/05/01 05:06:34;;;;;;;10.57;6.87;;;;;;;10.56;60.76;98852.34;5070033;28;42801;-80
2023/05/01 05:09:01;;;;;;;8.47;6.73;;;;;;;10.58;60.70;98851.31;5070205;28;42652;-80
2023/05/01 05:11:30;;;;;;;8.50;6.40;;;;;;;10.48;60.47;98831.66;5053409;28;39802;-82
2023/05/01 05:13:58;;;;;;;6.63;6.00;;;;;;;10.64;60.62;98848.25;5070440;28;41066;-81
2023/05/01 05:16:26;;;;;;;8.30;6.67;;;;;;;10.69;60.16;98840.03;5069930;28;42930;-81
2023/05/01 05:18:56;;;;;;;9.37;6.47;;;;;;;10.75;60.03;98844.97;5053482;28;41924;-80
2023/05/01 05:21:25;;;;;;;8.87;6.70;;;;;;;10.83;60.24;98847.97;5053309;28;38965;-79
2023/05/01 05:23:56;;;;;;;9.37;6.70;;;;;;;10.93;60.29;98842.94;5067284;28;42460;-80
2023/05/01 05:26:25;;;;;;;8.27;7.23;;;;;;;11.00;60.00;98842.41;5052508;28;41658;-81
2023/05/01 05:28:55;;;;;;;7.97;7.17;;;;;;;11.16;59.66;98851.09;5069848;28;43352;-81
2023/05/01 05:31:23;;;;;;;7.57;6.10;;;;;;;11.27;59.55;98846.88;5053079;28;40018;-80
2023/05/01 05:33:51;;;;;;;8.97;6.83;;;;;;;11.42;59.11;98852.03;5070237;28;42481;-81
2023/05/01 05:36:18;;;;;;;9.37;6.97;;;;;;;11.55;58.87;98852.06;5053104;28;43057;-83
2023/05/01 05:38:46;;;;;;;9.13;7.37;;;;;;;11.59;58.95;98829.72;5053204;28;42724;-81
2023/05/01 05:41:17;;;;;;;7.50;6.57;;;;;;;11.69;58.58;98833.44;5052950;28;39803;-81
2023/05/01 05:43:46;;;;;;;11.43;7.50;;;;;;;11.82;58.50;98829.03;5070153;28;41641;-83
2023/05/01 05:46:15;;;;;;;10.80;7.70;;;;;;;12.10;57.74;98853.69;5069788;28;42697;-80
2023/05/01 05:48:43;;;;;;;10.30;7.40;;;;;;;12.20;57.45;98854.75;5053256;28;41643;-84
2023/05/01 05:51:11;;;;;;;7.80;7.00;;;;;;;12.32;57.39;98853.06;5052835;28;38818;-83
2023/05/01 05:53:39;;;;;;;8.97;8.07;;;;;;;12.46;56.27;98855.59;5052745;28;42037;-80
2023/05/01 05:56:08;;;;;;;8.63;7.57;;;;;;;12.59;56.05;98859.09;5052900;28;42854;-82
2023/05/01 05:58:35;;;;;;;9.43;7.70;;;;;;;12.73;55.81;98847.50;5052956;28;41584;-83
2023/05/01 06:01:05;;;;;;;9.43;8.13;;;;;;;12.84;55.27;98844.91;5052737;28;38924;-79
2023/05/01 06:03:37;;;;;;;9.23;7.83;;;;;;;13.00;55.43;98849.94;5070615;28;42792;-81
2023/05/01 06:06:05;;;;;;;11.40;7.70;;;;;;;13.13;54.94;98846.28;5053395;28;41272;-79
2023/05/01 06:08:34;;;;;;;9.97;8.47;;;;;;;13.12;53.78;98865.00;5053050;28;42263;-81
2023/05/01 06:11:01;;;;;;;11.40;9.10;;;;;;;13.06;53.41;98826.44;5069658;28;39641;-81
2023/05/01 06:13:29;;;;;;;10.20;8.23;;;;;;;13.40;54.11;98861.22;5069444;28;41814;-83
2023/05/01 06:15:57;;;;;;;10.73;7.47;;;;;;;13.54;53.50;98861.06;5069620;28;43336;-83
2023/05/01 06:18:25;;;;;;;11.00;7.83;;;;;;;13.76;53.73;98857.63;5069218;28;42578;-80
2023/05/01 06:20:54;;;;;;;11.97;8.53;;;;;;;13.89;52.48;98867.22;5069246;28;41980;-79
2023/05/01 06:23:21;;;;;;;10.50;8.17;;;;;;;14.12;53.00;98840.66;5070448;28;41738;-83
2023/05/01 06:26:08;;;;;;;12.00;8.00;;;;;;;14.49;51.68;98860.84;5069319;28;41734;-81
2023/05/01 06:28:36;;;;;;;9.43;8.40;;;;;;;14.81;51.19;98850.31;5052563;28;41432;-81
2023/05/01 06:31:04;;;;;;;9.00;7.47;;;;;;;15.31;50.21;98859.56;5069309;28;38993;-82
2023/05/01 06:33:36;;;;;;;9.00;7.50;;;;;;;15.86;48.86;98868.34;5052961;28;41097;-83
2023/05/01 06:36:16;;;;;;;9.33;7.50;;;;;;;16.29;48.17;98862.03;5052296;28;41957;-81
2023/05/01 06:38:47;;;;;;;10.57;7.87;;;;;;;16.55;48.53;98867.81;5071099;28;42201;-83
2023/05/01 06:41:16;;;;;;;9.13;7.77;;;;;;;16.30;47.01;98815.63;5070777;28;41057;-83
2023/05/01 06:43:44;;;;;;;11.50;8.30;;;;;;;16.75;47.77;98859.78;5055644;28;40741;-83
2023/05/01 06:46:12;;;;;;;9.33;7.90;;;;;;;16.83;46.78;98857.25;5055603;28;42740;-81
2023/05/01 06:48:39;;;;;;;10.00;7.83;;;;;;;17.05;46.87;98863.41;5072421;28;42055;-83
2023/05/01 06:51:07;;;;;;;9.70;7.60;;;;;;;17.28;46.56;98867.53;5055158;28;40187;-80
2023/05/01 06:53:37;;;;;;;8.67;7.40;;;;;;;17.51;46.06;98863.63;5072434;28;41697;-82
2023/05/01 06:56:05;;;;;;;10.03;7.57;;;;;;;17.47;45.33;98864.88;5055543;28;41692;-83
2023/05/01 06:58:33;;;;;;;11.20;7.63;;;;;;;17.68;45.76;98850.59;5055322;28;40871;-82
2023/05/01 07:01:01;;;;;;;7.93;7.13;;;;;;;17.99;43.69;98892.31;5072257;28;39894;-85
2023/05/01 07:03:29;;;;;;;9.57;6.93;;;;;;;18.14;44.39;98882.00;5073084;28;41823;-83
2023/05/01 07:05:56;;;;;;;10.17;7.00;;;;;;;18.21;42.62;98877.75;5071965;28;43746;-82
2023/05/01 07:08:26;;;;;;;10.47;7.90;;;;;;;18.34;43.29;98888.16;5072257;28;41934;-80
2023/05/01 07:10:55;;;;;;;10.00;7.30;;;;;;;18.44;43.75;98883.63;5055183;28;40957;-84
2023/05/01 07:13:23;;;;;;;7.93;7.13;;;;;;;18.53;42.43;98893.50;5072105;28;40886;-80
2023/05/01 07:15:51;;;;;;;9.17;6.90;;;;;;;18.60;43.08;98883.91;5073055;28;42814;-81
2023/05/01 07:18:18;;;;;;;8.53;7.43;;;;;;;18.65;42.15;98892.38;5072060;28;40991;-83
2023/05/01 07:20:48;;;;;;;6.90;6.30;;;;;;;18.61;40.92;98896.31;5071887;28;39974;-83
2023/05/01 07:23:16;;;;;;;7.93;6.87;;;;;;;18.67;41.28;98882.31;5072091;28;41992;-82
2023/05/01 07:25:45;;;;;;;8.70;6.53;;;;;;;18.73;41.31;98879.06;5071813;28;41738;-83
2023/05/01 07:28:16;;;;;;;7.60;6.33;;;;;;;18.72;40.55;98872.00;5055133;28;41299;-82
2023/05/01 07:30:47;;;;;;;7.43;6.20;;;;;;;18.79;40.58;98873.09;5054860;28;38989;-83
2023/05/01 07:33:15;;;;;;;8.23;6.93;;;;;;;18.72;40.61;98855.91;5054942;28;42126;-81
2023/05/01 07:35:43;;;;;;;10.03;7.13;;;;;;;18.79;40.88;98857.00;5071441;28;41918;-83
2023/05/01 07:38:10;;;;;;;8.60;6.97;;;;;;;18.78;41.22;98862.53;5054923;28;42682;-82
2023/05/01 07:40:38;;;;;;;7.37;6.10;;;;;;;18.83;41.23;98852.19;5071906;28;39053;-80
2023/05/01 07:43:09;;;;;;;7.60;6.77;;;;;;;18.95;41.48;98856.38;5072826;28;41879;-83
2023/05/01 07:45:38;;;;;;;7.33;5.97;;;;;;;18.92;40.83;98838.72;5054691;28;42832;-81
2023/05/01 07:48:07;;;;;;;7.07;6.37;;;;;;;18.95;41.25;98829.53;5054845;28;42109;-83
2023/05/01 07:50:34;;;;;;;6.77;6.00;;;;;;;19.01;41.41;98848.59;5054278;28;39177;-80
2023/05/01 07:53:02;;;;;;;6.73;5.70;;;;;;;19.00;42.05;98844.19;5071575;28;40695;-82
2023/05/01 07:55:30;;;;;;;6.30;5.67;;;;;;;18.82;40.49;98842.44;5072268;28;43658;-83
2023/05/01 07:57:57;;;;;;;6.90;5.97;;;;;;;18.89;41.19;98847.09;5072215;28;43076;-83
2023/05/01 08:00:25;;;;;;;7.63;6.13;;;;;;;18.98;40.24;98856.06;5072122;28;41833;-83
2023/05/01 08:02:54;;;;;;;7.57;5.63;;;;;;;19.21;40.67;98846.63;5054158;28;40737;-82
2023/05/01 08:05:22;;;;;;;8.47;6.17;;;;;;;19.39;39.96;98841.28;5070852;28;42627;-84
2023/05/01 08:07:50;;;;;;;9.17;5.83;;;;;;;19.56;38.62;98845.84;5071201;28;42090;-83
2023/05/01 08:10:18;;;;;;;8.70;6.40;;;;;;;19.77;38.79;98855.47;5054400;28;39177;-84
2023/05/01 08:12:46;;;;;;;9.63;6.47;;;;;;;19.97;38.42;98860.50;5054697;28;40703;-82
2023/05/01 08:15:13;;;;;;;7.70;6.53;;;;;;;20.05;37.97;98840.91;5054554;28;41755;-86
2023/05/01 08:17:41;;;;;;;7.80;5.80;;;;;;;20.26;38.40;98849.47;5054547;28;41308;-84
2023/05/01 08:20:13;;;;;;;6.87;6.10;;;;;;;20.35;38.67;98816.28;5054975;28;38629;-88
2023/05/01 08:22:40;;;;;;;6.90;5.70;;;;;;;20.71;37.19;98864.59;5054344;28;41145;-88
2023/05/01 08:25:09;;;;;;;6.07;5.47;;;;;;;20.89;36.56;98856.44;5054441;28;42834;-83
2023/05/01 08:27:37;;;;;;;6.50;5.80;;;;;;;20.95;37.20;98839.63;5053929;28;40925;-85
2023/05/01 08:30:06;;;;;;;6.40;5.80;;;;;;;21.00;36.47;98837.31;5071663;28;41138;-85
2023/05/01 08:32:34;;;;;;;6.27;5.67;;;;;;;20.97;36.05;98848.41;5071300;28;41951;-89
2023/05/01 08:35:02;;;;;;;8.63;6.00;;;;;;;20.92;35.93;98846.19;5072265;28;43615;-84
2023/05/01 08:37:31;;;;;;;7.23;6.03;;;;;;;20.95;35.90;98859.31;5070875;28;43254;-89
2023/05/01 08:39:59;;;;;;;5.60;5.00;;;;;;;20.86;36.74;98844.16;5054596;28;39639;-86
2023/05/01 08:42:27;;;;;;;7.47;5.37;;;;;;;20.97;36.58;98860.00;5070890;28;42540;-84
2023/05/01 08:44:59;;;;;;;8.20;5.80;;;;;;;20.85;37.02;98845.16;5054115;28;41748;-84
2023/05/01 08:47:29;;;;;;;8.20;5.27;;;;;;;20.83;36.80;98868.69;5037080;28;41582;-79
2023/05/01 08:50:00;;;;;;;6.37;5.63;;;;;;;20.69;37.31;98862.06;5070285;28;40185;-80
2023/05/01 08:52:30;;;;;;;6.17;5.30;;;;;;;20.59;37.46;98863.16;5071261;28;42629;-81
2023/05/01 08:55:00;;;;;;;6.27;5.67;;;;;;;20.46;36.72;98868.13;5053141;28;41944;-78
2023/05/01 08:57:30;;;;;;;6.50;5.80;;;;;;;20.32;37.58;98870.34;5070139;28;41974;-78
2023/05/01 08:59:59;;;;;;;8.33;6.13;;;;;;;19.98;38.05;98818.34;5069581;28;38625;-80
2023/05/01 09:02:28;;;;;;;6.20;5.60;;;;;;;20.11;37.42;98871.72;5069233;28;40643;-79
2023/05/01 09:04:58;;;;;;;8.07;6.10;;;;;;;19.89;37.16;98873.88;5069880;28;42001;-79
2023/05/01 09:07:26;;;;;;;6.57;5.87;;;;;;;19.67;38.03;98859.03;5070698;28;43000;-79
2023/05/01 09:09:54;;;;;;;5.60;5.00;;;;;;;19.55;38.58;98854.06;5070194;28;39875;-78
2023/05/01 09:12:26;;;;;;;8.87;6.13;;;;;;;19.39;39.10;98841.28;5069365;28;41805;-79
2023/05/01 09:14:55;;;;;;;7.67;5.90;;;;;;;19.28;40.40;98838.81;5053445;28;41620;-80
2023/05/01 09:17:23;;;;;;;7.07;5.40;;;;;;;19.20;40.29;98839.56;5069631;28;43802;-78
2023/05/01 09:19:53;;;;;;;6.40;5.50;;;;;;;19.07;39.94;98822.97;5072036;28;20219;-80
2023/05/01 09:22:21;;;;;;;6.97;5.70;;;;;;;19.08;40.98;98823.81;5069274;28;41960;-80
2023/05/01 09:24:49;;;;;;;5.77;5.17;;;;;;;19.05;41.83;98824.09;5053001;28;41349;-79
2023/05/01 09:27:18;;;;;;;5.97;5.37;;;;;;;18.98;42.23;98813.13;5070443;28;43067;-78
2023/05/01 09:29:48;;;;;;;6.30;5.57;;;;;;;18.99;41.53;98820.19;5053222;28;39479;-79
2023/05/01 09:32:19;;;;;;;6.70;5.70;;;;;;;18.99;41.87;98826.41;5069313;28;40946;-80
2023/05/01 09:34:47;;;;;;;6.83;5.30;;;;;;;18.98;41.47;98819.34;5053000;28;42401;-78
2023/05/01 09:37:27;;;;;;;6.73;5.10;;;;;;;18.98;42.26;98805.94;5068951;28;41243;-80
2023/05/01 09:40:09;;;;;;;9.67;5.53;;;;;;;19.19;40.40;98834.34;5069741;28;39992;-78
2023/05/01 09:42:38;;;;;;;6.80;4.97;;;;;;;19.30;38.91;98826.91;5069611;28;42564;-80
2023/05/01 09:45:14;;;;;;;7.17;5.27;;;;;;;19.46;39.95;98828.09;5069434;28;42470;-81
2023/05/01 09:47:42;;;;;;;5.40;4.90;;;;;;;19.60;40.57;98825.75;5069652;28;41919;-79
2023/05/01 09:50:12;;;;;;;6.57;4.87;;;;;;;19.64;39.10;98816.38;5069643;28;40053;-81
2023/05/01 09:52:40;;;;;;;5.20;4.70;;;;;;;19.87;39.93;98827.50;5052727;28;41747;-81
2023/05/01 09:55:15;;;;;;;5.87;5.27;;;;;;;20.03;38.68;98837.53;5069567;28;42980;-82
2023/05/01 09:57:44;;;;;;;5.00;4.60;;;;;;;20.10;39.66;98825.16;5052706;28;41391;-80
2023/05/01 10:00:15;;;;;;;6.77;5.17;;;;;;;20.17;38.33;98842.34;5070965;28;39962;-81
2023/05/01 10:02:45;;;;;;;6.80;6.07;;;;;;;20.22;37.85;98845.41;5052420;28;41105;-82
2023/05/01 10:05:14;;;;;;;5.50;5.00;;;;;;;20.14;37.22;98836.44;5052686;28;43039;-80
2023/05/01 10:07:59;;;;;;;6.33;5.73;;;;;;;20.20;37.37;98855.47;5052590;28;42423;-83
2023/05/01 10:10:27;;;;;;;7.57;5.83;;;;;;;20.18;38.11;98852.09;5052467;28;39199;-89
2023/05/01 10:12:55;;;;;;;5.47;4.80;;;;;;;20.25;38.02;98837.03;5073055;28;41862;-85
2023/05/01 10:15:37;;;;;;;6.13;5.53;;;;;;;20.32;38.28;98838.06;5055994;28;41775;-82
2023/05/01 10:18:05;;;;;;;6.00;5.40;;;;;;;20.18;38.28;98809.06;5070080;28;42989;-83
2023/05/01 10:20:32;;;;;;;5.87;5.17;;;;;;;20.33;37.42;98834.38;5073062;28;40026;-85
2023/05/01 10:23:02;;;;;;;5.57;4.93;;;;;;;20.36;37.85;98836.81;5073027;28;41642;-80
2023/05/01 10:25:31;;;;;;;7.07;5.93;;;;;;;20.52;38.51;98848.69;5072694;28;42894;-81
2023/05/01 10:27:59;;;;;;;5.90;4.70;;;;;;;20.53;38.56;98844.97;5073817;28;43253;-78
2023/05/01 10:30:30;;;;;;;7.17;5.10;;;;;;;20.41;37.99;98831.78;5072727;28;39634;-79
2023/05/01 10:32:58;;;;;;;5.67;5.00;;;;;;;20.17;38.04;98796.63;5073235;28;41172;-79
2023/05/01 10:35:30;;;;;;;6.03;4.93;;;;;;;20.49;38.39;98835.53;5055743;28;41688;-82
2023/05/01 10:38:01;;;;;;;5.83;5.23;;;;;;;20.52;38.25;98844.13;5070201;28;42166;-78
2023/05/01 10:40:48;;;;;;;5.70;5.10;;;;;;;20.35;38.32;98837.81;5071773;28;40114;-80
2023/05/01 10:43:19;;;;;;;5.43;4.93;;;;;;;20.36;38.99;98839.50;5072876;28;42260;-82
2023/05/01 10:45:48;;;;;;;5.77;4.80;;;;;;;20.31;38.83;98852.53;5056011;28;42809;-81
2023/05/01 10:48:56;;;;;;;5.50;5.00;;;;;;;20.17;38.83;98847.72;5073761;28;42819;-79
2023/05/01 10:51:24;;;;;;;5.07;4.30;;;;;;;20.04;39.10;98840.06;5042024;28;39995;-80
2023/05/01 10:54:25;;;;;;;7.70;6.00;;;;;;;20.09;39.91;98831.53;5072079;28;42213;-80
2023/05/01 10:56:54;;;;;;;8.40;6.10;;;;;;;20.14;39.85;98834.59;5071605;28;42701;-78
2023/05/01 10:59:22;;;;;;;6.23;5.60;;;;;;;20.09;39.74;98827.00;5073439;28;43080;-79
2023/05/01 11:01:52;;;;;;;5.27;4.83;;;;;;;20.16;40.22;98827.19;5071477;28;38725;-81
2023/05/01 11:04:52;;;;;;;9.50;6.00;;;;;;;20.05;40.08;98830.16;5071926;28;42474;-80
2023/05/01 11:07:21;;;;;;;5.80;5.20;;;;;;;19.84;40.17;98837.72;5071763;28;41764;-80
2023/05/01 11:09:53;;;;;;;6.03;5.27;;;;;;;19.67;40.44;98831.31;5072255;28;43576;-80
2023/05/01 11:13:00;;;;;;;7.43;6.00;;;;;;;19.49;41.13;98822.44;5055389;28;39685;-84
2023/05/01 11:15:29;;;;;;;6.63;5.43;;;;;;;19.28;41.10;98812.81;5055628;28;40408;-87
2023/05/01 11:18:00;;;;;;;6.83;5.30;;;;;;;19.16;41.79;98810.50;5071942;28;42504;-80
2023/05/01 11:20:51;;;;;;;6.17;5.33;;;;;;;18.91;42.04;98796.81;5071077;28;42597;-79
2023/05/01 11:23:24;;;;;;;6.63;5.43;;;;;;;18.84;42.10;98808.25;5070812;28;39901;-81
2023/05/01 11:26:03;;;;;;;6.10;4.83;;;;;;;18.67;42.24;98804.50;5054490;28;40840;-81
2023/05/01 11:28:31;;;;;;;4.80;4.40;;;;;;;18.61;42.48;98799.75;5068258;28;42873;-83
2023/05/01 11:31:00;;;;;;;6.23;5.60;;;;;;;18.56;43.27;98804.69;5071669;28;43205;-78
2023/05/01 11:33:30;;;;;;;6.07;5.47;;;;;;;18.46;42.65;98809.25;5071567;28;39824;-80
2023/05/01 11:36:02;;;;;;;5.63;5.10;;;;;;;18.28;43.35;98804.66;5054559;28;41904;-79
2023/05/01 11:38:30;;;;;;;6.00;5.40;;;;;;;17.97;44.53;98805.84;5067953;28;42736;-77
2023/05/01 11:41:02;;;;;;;6.47;4.93;;;;;;;17.56;45.83;98781.03;5071034;28;42347;-78
2023/05/01 11:43:30;;;;;;;6.80;5.87;;;;;;;17.26;46.71;98769.63;5069305;28;39851;-85
2023/05/01 11:46:04;;;;;;;5.47;4.97;;;;;;;17.10;47.18;98764.81;5071520;28;40789;-83
2023/05/01 11:48:33;;;;;;;6.00;5.20;;;;;;;17.16;47.93;98766.94;5055081;28;42252;-79
2023/05/01 11:51:01;;;;;;;9.43;6.10;;;;;;;17.28;47.92;98776.53;5072202;28;42146;-83